Time;durP1;ratioP1;P1;durP2;ratioP2;P2;SDS_P1;SDS_P2;PMS_P1;PMS_P2;Temp;Humidity;BMP_temperature;BMP_pressure;BME280_temperature;BME280_humidity;BME280_pressure;Samples;Min_cycle;Max_cycle;Signal;HPM_P1;HPM_P2
2021/09/22 00:01:25;;;;;;;25.60;5.70;;;;;12.80;101500.00;;;;5045326;28;20059;-79
2021/09/22 00:03:55;;;;;;;21.60;4.70;;;;;12.60;101514.00;;;;5045396;28;20656;-80
2021/09/22 00:06:25;;;;;;;34.25;5.78;;;;;12.40;101498.00;;;;5046240;28;20067;-78
2021/09/22 00:08:55;;;;;;;24.02;5.00;;;;;12.30;101497.00;;;;5045788;28;20511;-78
2021/09/22 00:11:25;;;;;;;29.15;5.15;;;;;12.20;101508.00;;;;5046383;28;20183;-78
2021/09/22 00:13:55;;;;;;;21.05;4.18;;;;;12.10;101524.00;;;;5046411;28;20500;-78
2021/09/22 00:16:24;;;;;;;25.38;4.85;;;;;12.00;101508.00;;;;5045715;28;20056;-79
2021/09/22 00:18:53;;;;;;;29.75;5.47;;;;;11.90;101518.00;;;;5046568;28;20438;-80
2021/09/22 00:21:23;;;;;;;29.38;4.97;;;;;11.90;101503.00;;;;5045737;28;20531;-78
2021/09/22 00:23:52;;;;;;;32.30;25.92;;;;;11.90;101505.00;;;;5046105;28;20044;-77
2021/09/22 00:26:22;;;;;;;4.85;4.50;;;;;12.00;101529.00;;;;5044943;28;20083;-76
2021/09/22 00:28:51;;;;;;;217.40;29.50;;;;;12.10;101521.00;;;;5043742;28;20060;-77
2021/09/22 00:31:20;;;;;;;25.05;4.35;;;;;12.20;101511.00;;;;5046330;28;20052;-79
2021/09/22 00:33:50;;;;;;;23.38;4.38;;;;;12.30;101515.00;;;;5045844;28;20127;-77
2021/09/22 00:36:20;;;;;;;35.45;5.68;;;;;12.30;101492.00;;;;5048491;28;20427;-78
2021/09/22 00:38:49;;;;;;;25.02;4.75;;;;;12.40;101523.00;;;;5052706;28;20415;-77
2021/09/22 00:41:18;;;;;;;28.40;4.68;;;;;12.50;101513.00;;;;5056223;28;20534;-80
2021/09/22 00:43:48;;;;;;;15.23;8.20;;;;;12.50;101507.00;;;;5056217;28;20041;-79
2021/09/22 00:46:18;;;;;;;45.45;40.70;;;;;12.60;101519.00;;;;5053941;28;20053;-76
2021/09/22 00:48:47;;;;;;;28.65;4.72;;;;;12.80;101521.00;;;;5053874;28;20071;-76
2021/09/22 00:51:17;;;;;;;32.75;5.10;;;;;12.90;101513.00;;;;5049570;28;20123;-79
2021/09/22 00:53:47;;;;;;;25.90;4.20;;;;;12.90;101510.00;;;;5049269;28;20055;-78
2021/09/22 00:56:17;;;;;;;26.92;4.28;;;;;12.90;101493.00;;;;5048480;28;20043;-79
2021/09/22 00:58:47;;;;;;;31.10;5.53;;;;;12.90;101516.00;;;;5048630;28;20060;-80
2021/09/22 01:01:18;;;;;;;15.10;3.60;;;;;13.00;101498.00;;;;5048278;28;20044;-79
2021/09/22 01:03:48;;;;;;;18.55;3.65;;;;;13.00;101508.00;;;;5048547;28;20055;-81
2021/09/22 01:06:18;;;;;;;14.50;3.33;;;;;13.00;101503.00;;;;5048741;28;20045;-80
2021/09/22 01:08:47;;;;;;;17.73;3.72;;;;;13.20;101485.00;;;;5049324;28;20504;-77
2021/09/22 01:11:17;;;;;;;11.35;3.53;;;;;13.20;101503.00;;;;5049140;28;20052;-79
2021/09/22 01:13:46;;;;;;;19.33;4.03;;;;;13.20;101506.00;;;;5048948;28;20041;-81
2021/09/22 01:16:16;;;;;;;26.38;5.05;;;;;13.10;101497.00;;;;5049455;28;20040;-77
2021/09/22 01:18:45;;;;;;;23.92;5.05;;;;;13.10;101484.00;;;;5047394;28;20076;-76
2021/09/22 01:21:19;;;;;;;33.28;6.53;;;;;13.30;101507.00;;;;5047440;28;20045;-77
2021/09/22 01:23:55;;;;;;;36.50;6.25;;;;;13.30;101507.00;;;;5047756;28;20049;-77
2021/09/22 01:26:24;;;;;;;22.38;6.15;;;;;13.30;101517.00;;;;5047300;28;20080;-76
2021/09/22 01:28:54;;;;;;;30.05;5.20;;;;;13.20;101505.00;;;;5047449;28;20143;-76
2021/09/22 01:31:23;;;;;;;27.52;5.80;;;;;13.10;101499.00;;;;5046882;28;20164;-81
2021/09/22 01:33:55;;;;;;;25.70;5.00;;;;;13.10;101516.00;;;;5046552;28;20103;-81
2021/09/22 01:36:47;;;;;;;25.10;5.35;;;;;13.10;101498.00;;;;5046384;28;20510;-80
2021/09/22 01:39:17;;;;;;;18.98;4.60;;;;;13.10;101520.00;;;;5047064;28;20049;-79
2021/09/22 01:41:47;;;;;;;22.13;5.60;;;;;13.10;101513.00;;;;5046313;28;20132;-80
2021/09/22 01:44:17;;;;;;;22.73;7.40;;;;;13.10;101519.00;;;;5047131;28;20083;-79
2021/09/22 01:47:04;;;;;;;17.83;6.72;;;;;13.00;101527.00;;;;5046241;28;20141;-82
2021/09/22 01:49:59;;;;;;;;;;;;;13.00;101513.00;;;;5047790;28;20049;-76
2021/09/22 01:52:33;;;;;;;25.23;4.30;;;;;13.00;101530.00;;;;5047370;28;19921;-77
2021/09/22 01:55:14;;;;;;;28.83;4.07;;;;;12.90;101495.00;;;;5047613;28;20041;-80
2021/09/22 01:57:46;;;;;;;22.33;3.67;;;;;12.80;101498.00;;;;5047241;28;20520;-77
2021/09/22 02:00:33;;;;;;;16.88;3.60;;;;;12.70;101508.00;;;;5046241;28;20047;-79
2021/09/22 02:03:03;;;;;;;34.58;4.70;;;;;12.60;101494.00;;;;5046677;28;20526;-76
2021/09/22 02:05:38;;;;;;;23.02;4.70;;;;;12.50;101500.00;;;;5046934;28;20049;-76
2021/09/22 02:08:17;;;;;;;28.55;5.63;;;;;12.40;101492.00;;;;5048034;28;20056;-78
2021/09/22 02:10:49;;;;;;;30.77;4.70;;;;;12.20;101505.00;;;;5047399;28;20052;-80
2021/09/22 02:13:20;;;;;;;;;;;;;12.10;101515.00;;;;5047586;28;20048;-75
2021/09/22 02:15:50;;;;;;;30.95;4.85;;;;;11.90;101505.00;;;;5047026;28;19920;-77
2021/09/22 02:18:42;;;;;;;28.33;5.28;;;;;11.80;101503.00;;;;5039440;28;20057;-75
2021/09/22 02:21:14;;;;;;;27.73;4.95;;;;;11.70;101505.00;;;;5047413;28;20156;-80
2021/09/22 02:23:44;;;;;;;26.17;4.05;;;;;11.60;101506.00;;;;5046033;28;20060;-80
2021/09/22 02:26:14;;;;;;;25.67;4.32;;;;;11.50;101507.00;;;;5046484;28;20099;-76
2021/09/22 02:28:43;;;;;;;31.88;4.65;;;;;11.40;101501.00;;;;5046035;28;20118;-80
2021/09/22 02:31:13;;;;;;;24.77;3.80;;;;;11.30;101491.00;;;;5047909;28;20492;-78
2021/09/22 02:33:57;;;;;;;30.98;4.13;;;;;11.20;101483.00;;;;5045976;28;20080;-77
2021/09/22 02:36:27;;;;;;;28.10;4.63;;;;;11.10;101493.00;;;;5046865;28;20417;-78
2021/09/22 02:39:03;;;;;;;26.77;4.00;;;;;11.10;101476.00;;;;5046019;28;20456;-79
2021/09/22 02:41:35;;;;;;;21.77;4.43;;;;;11.00;101465.00;;;;5047913;28;20086;-79
2021/09/22 02:44:05;;;;;;;18.95;3.58;;;;;11.00;101467.00;;;;5047187;28;20108;-77
2021/09/22 02:46:44;;;;;;;19.80;3.50;;;;;10.90;101461.00;;;;5046180;28;20040;-75
2021/09/22 02:49:14;;;;;;;32.85;8.18;;;;;10.90;101489.00;;;;5029547;28;20139;-79
2021/09/22 02:51:43;;;;;;;25.98;3.90;;;;;10.80;101480.00;;;;5045564;28;20566;-77
2021/09/22 02:54:13;;;;;;;27.75;4.18;;;;;10.80;101469.00;;;;5045774;28;20053;-77
2021/09/22 02:56:56;;;;;;;21.17;3.72;;;;;10.70;101483.00;;;;5046250;28;20144;-78
2021/09/22 02:59:26;;;;;;;74.15;7.32;;;;;10.70;101497.00;;;;5047185;28;20052;-77
2021/09/22 03:01:55;;;;;;;26.80;4.60;;;;;10.70;101479.00;;;;5045763;28;20439;-78
2021/09/22 03:04:25;;;;;;;37.22;4.85;;;;;10.60;101469.00;;;;5046146;28;20110;-79
2021/09/22 03:06:55;;;;;;;29.67;3.78;;;;;10.60;101466.00;;;;5047032;28;20053;-76
2021/09/22 03:09:24;;;;;;;22.67;4.47;;;;;10.60;101493.00;;;;5047343;28;20594;-77
2021/09/22 03:11:54;;;;;;;31.25;4.75;;;;;10.50;101471.00;;;;5045886;28;20055;-77
2021/09/22 03:14:23;;;;;;;35.45;4.07;;;;;10.50;101450.00;;;;5045889;28;20055;-77
2021/09/22 03:16:53;;;;;;;25.85;3.97;;;;;10.50;101458.00;;;;5045360;28;20095;-78
2021/09/22 03:19:22;;;;;;;32.95;4.13;;;;;10.50;101473.00;;;;5046644;28;20041;-80
2021/09/22 03:21:52;;;;;;;33.22;4.50;;;;;10.50;101470.00;;;;5045659;28;20068;-76
2021/09/22 03:24:37;;;;;;;9.18;2.30;;;;;10.50;101489.00;;;;5045391;28;20094;-75
2021/09/22 03:27:07;;;;;;;11.60;2.25;;;;;10.40;101441.00;;;;5044651;28;20151;-77
2021/09/22 03:29:37;;;;;;;8.18;2.00;;;;;10.40;101442.00;;;;5044849;28;20059;-78
2021/09/22 03:32:06;;;;;;;6.93;1.77;;;;;10.40;101460.00;;;;5045461;28;20751;-79
2021/09/22 03:34:37;;;;;;;6.03;1.95;;;;;10.30;101449.00;;;;5045279;28;20048;-78
2021/09/22 03:37:06;;;;;;;7.28;2.30;;;;;10.30;101448.00;;;;5045072;28;20538;-76
2021/09/22 03:39:36;;;;;;;7.55;2.10;;;;;10.30;101426.00;;;;5046270;28;20579;-79
2021/09/22 03:42:05;;;;;;;10.73;2.30;;;;;10.30;101440.00;;;;5046720;28;20048;-80
2021/09/22 03:44:34;;;;;;;35.25;4.20;;;;;10.20;101433.00;;;;5046959;28;20044;-79
2021/09/22 03:47:04;;;;;;;31.35;4.45;;;;;10.20;101457.00;;;;5045461;28;20045;-75
2021/09/22 03:49:34;;;;;;;204.57;74.57;;;;;10.20;101447.00;;;;5044921;28;20045;-77
2021/09/22 03:52:18;;;;;;;10.85;8.07;;;;;10.20;101421.00;;;;5044736;28;20596;-77
2021/09/22 03:54:48;;;;;;;30.63;4.30;;;;;10.10;101435.00;;;;5044644;28;20080;-79
2021/09/22 03:57:17;;;;;;;129.32;33.70;;;;;10.10;101449.00;;;;5044251;28;20053;-80
2021/09/22 03:59:47;;;;;;;13.27;2.78;;;;;10.10;101451.00;;;;5045222;28;20500;-78
2021/09/22 04:02:18;;;;;;;195.32;69.90;;;;;10.10;101431.00;;;;5046196;28;20049;-79
2021/09/22 04:04:48;;;;;;;82.47;61.87;;;;;10.10;101415.00;;;;5044990;28;20139;-81
2021/09/22 04:07:17;;;;;;;114.43;14.75;;;;;10.10;101435.00;;;;5044917;28;20048;-77
2021/09/22 04:09:48;;;;;;;31.27;5.10;;;;;10.10;101430.00;;;;5048710;28;20048;-78
2021/09/22 04:12:17;;;;;;;15.25;3.10;;;;;10.10;101421.00;;;;5048970;28;20092;-79
2021/09/22 04:14:47;;;;;;;107.80;92.97;;;;;10.10;101419.00;;;;5049039;28;20045;-76
2021/09/22 04:17:16;;;;;;;15.10;2.72;;;;;10.10;101413.00;;;;5048521;28;20048;-76
2021/09/22 04:19:46;;;;;;;30.23;4.72;;;;;10.10;101413.00;;;;5048705;28;20049;-79
2021/09/22 04:22:21;;;;;;;33.47;4.20;;;;;10.20;101423.00;;;;5048578;28;20048;-79
2021/09/22 04:24:51;;;;;;;23.40;3.47;;;;;10.10;101394.00;;;;5048486;28;20049;-75
2021/09/22 04:27:20;;;;;;;33.15;4.35;;;;;10.20;101409.00;;;;5048348;28;20140;-80
2021/09/22 04:30:13;;;;;;;31.25;4.43;;;;;10.20;101416.00;;;;5038945;28;20484;-79
2021/09/22 04:33:02;;;;;;;35.88;4.60;;;;;10.10;101403.00;;;;5050095;28;20780;-79
2021/09/22 04:35:56;;;;;;;26.35;3.58;;;;;10.10;101417.00;;;;5039189;28;20746;-80
2021/09/22 04:38:44;;;;;;;11.35;3.20;;;;;10.10;101405.00;;;;5049195;28;20052;-79
2021/09/22 04:41:32;;;;;;;23.63;3.47;;;;;10.10;101385.00;;;;5049711;28;20048;-78
2021/09/22 04:44:20;;;;;;;31.30;4.40;;;;;10.10;101378.00;;;;5049546;28;20142;-76
2021/09/22 04:47:08;;;;;;;25.95;3.33;;;;;10.10;101400.00;;;;5048847;28;20048;-80
2021/09/22 04:50:03;;;;;;;32.72;4.10;;;;;10.00;101377.00;;;;5050216;28;20497;-77
2021/09/22 04:52:51;;;;;;;30.05;3.72;;;;;10.00;101390.00;;;;5048747;28;20126;-78
2021/09/22 04:55:39;;;;;;;32.28;3.83;;;;;10.00;101361.00;;;;5048108;28;20072;-78
2021/09/22 04:58:27;;;;;;;28.13;4.32;;;;;10.00;101397.00;;;;5049607;28;20179;-79
2021/09/22 05:01:16;;;;;;;33.10;3.83;;;;;10.00;101386.00;;;;5049483;28;20183;-82
2021/09/22 05:04:04;;;;;;;27.33;3.90;;;;;9.90;101386.00;;;;5049145;28;20118;-77
2021/09/22 05:06:52;;;;;;;27.30;4.15;;;;;9.80;101380.00;;;;5049467;28;20427;-77
2021/09/22 05:09:40;;;;;;;33.15;4.47;;;;;9.80;101383.00;;;;5049035;28;20052;-77
2021/09/22 05:12:28;;;;;;;31.20;4.63;;;;;9.70;101368.00;;;;5049401;28;20068;-80
2021/09/22 05:15:16;;;;;;;27.08;3.83;;;;;9.70;101345.00;;;;5049366;28;20059;-78
2021/09/22 05:18:04;;;;;;;22.92;2.92;;;;;9.70;101356.00;;;;5048879;28;20056;-76
2021/09/22 05:20:52;;;;;;;29.38;5.18;;;;;9.70;101352.00;;;;5049714;28;20063;-77
2021/09/22 05:23:51;;;;;;;15.70;3.05;;;;;9.60;101338.00;;;;5046080;28;20399;-77
2021/09/22 05:26:39;;;;;;;29.35;3.92;;;;;9.60;101344.00;;;;5048516;28;20111;-76
2021/09/22 05:29:27;;;;;;;27.55;3.47;;;;;9.50;101340.00;;;;5048245;28;20079;-79
2021/09/22 05:32:35;;;;;;;18.25;2.30;;;;;9.50;101372.00;;;;5085971;28;20040;-78
2021/09/22 05:35:31;;;;;;;17.42;2.83;;;;;9.50;101365.00;;;;5063103;28;20086;-79
2021/09/22 05:38:18;;;;;;;28.33;3.50;;;;;9.50;101365.00;;;;5055472;28;20052;-79
2021/09/22 05:41:07;;;;;;;34.30;3.67;;;;;9.50;101345.00;;;;5048661;28;20047;-78
2021/09/22 05:43:55;;;;;;;24.20;3.42;;;;;9.60;101339.00;;;;5049121;28;20056;-78
2021/09/22 05:46:56;;;;;;;;;;;;;9.60;101360.00;;;;5036411;28;20057;-78
2021/09/22 05:49:44;;;;;;;33.92;4.32;;;;;9.70;101331.00;;;;5048128;28;19930;-78
2021/09/22 05:52:32;;;;;;;35.33;4.30;;;;;9.90;101321.00;;;;5048187;28;20129;-78
2021/09/22 05:55:20;;;;;;;34.63;4.68;;;;;10.00;101322.00;;;;5048437;28;20051;-76
2021/09/22 05:58:08;;;;;;;28.70;3.60;;;;;10.10;101330.00;;;;5047725;28;20055;-78
2021/09/22 06:00:57;;;;;;;31.50;3.85;;;;;10.20;101311.00;;;;5048441;28;20048;-77
2021/09/22 06:03:45;;;;;;;23.60;3.75;;;;;10.30;101328.00;;;;5048008;28;20056;-77
2021/09/22 06:06:43;;;;;;;19.90;3.22;;;;;10.40;101303.00;;;;5028452;28;20046;-77
2021/09/22 06:09:39;;;;;;;28.17;4.20;;;;;10.50;101300.00;;;;5031560;28;20148;-80
2021/09/22 06:12:23;;;;;;;29.90;4.30;;;;;10.60;101308.00;;;;5046137;28;20132;-81
2021/09/22 06:14:53;;;;;;;26.45;3.92;;;;;10.70;101297.00;;;;5046091;28;20053;-78
2021/09/22 06:17:23;;;;;;;37.47;4.28;;;;;10.80;101313.00;;;;5046727;28;20049;-81
2021/09/22 06:19:52;;;;;;;26.67;16.50;;;;;10.90;101313.00;;;;5047674;28;20056;-80
2021/09/22 06:22:26;;;;;;;;;;;;;10.90;101311.00;;;;5047097;28;20075;-77
2021/09/22 06:24:56;;;;;;;15.50;1.85;;;;;11.00;101290.00;;;;5047684;28;19943;-79
2021/09/22 06:27:26;;;;;;;8.52;0.93;;;;;11.00;101309.00;;;;5047544;28;20514;-80
2021/09/22 06:29:55;;;;;;;26.15;3.40;;;;;11.10;101281.00;;;;5047845;28;20057;-80
2021/09/22 06:32:25;;;;;;;24.42;3.45;;;;;11.20;101282.00;;;;5047479;28;20052;-79
2021/09/22 06:35:33;;;;;;;11.80;2.20;;;;;11.30;101279.00;;;;5004798;28;20054;-79
2021/09/22 06:38:07;;;;;;;14.13;2.53;;;;;11.30;101279.00;;;;4988221;28;20049;-79
2021/09/22 06:40:46;;;;;;;17.88;3.03;;;;;11.30;101294.00;;;;5022184;28;20049;-81
2021/09/22 06:43:16;;;;;;;21.58;3.65;;;;;11.30;101306.00;;;;5046126;28;20055;-77
2021/09/22 06:45:45;;;;;;;16.85;2.67;;;;;11.30;101266.00;;;;5046822;28;20098;-78
2021/09/22 06:48:18;;;;;;;26.50;5.28;;;;;11.30;101304.00;;;;5047408;28;20044;-81
2021/09/22 06:50:48;;;;;;;30.02;4.40;;;;;11.50;101292.00;;;;5047294;28;20124;-77
2021/09/22 06:53:18;;;;;;;29.40;4.18;;;;;11.40;101277.00;;;;5047752;28;20404;-77
2021/09/22 06:55:47;;;;;;;28.05;4.38;;;;;11.50;101287.00;;;;5047344;28;20774;-80
2021/09/22 06:58:17;;;;;;;32.00;4.15;;;;;11.50;101295.00;;;;5046747;28;20140;-77
2021/09/22 07:00:46;;;;;;;31.85;4.57;;;;;11.50;101293.00;;;;5047061;28;20051;-76
2021/09/22 07:03:16;;;;;;;10.90;2.97;;;;;11.50;101284.00;;;;5047327;28;20174;-77
2021/09/22 07:05:46;;;;;;;29.35;4.28;;;;;11.50;101298.00;;;;5047640;28;20426;-80
2021/09/22 07:08:15;;;;;;;36.20;4.15;;;;;11.50;101294.00;;;;5047430;28;20040;-79
2021/09/22 07:10:45;;;;;;;1999.90;999.90;;;;;11.60;101303.00;;;;5047006;28;20053;-80
2021/09/22 07:13:15;;;;;;;20.02;3.50;;;;;11.60;101271.00;;;;5046840;28;20518;-77
2021/09/22 07:15:44;;;;;;;28.35;4.00;;;;;11.50;101277.00;;;;5047681;28;20037;-76
2021/09/22 07:18:18;;;;;;;24.48;3.67;;;;;11.50;101270.00;;;;5047255;28;20065;-78
2021/09/22 07:20:49;;;;;;;29.95;4.50;;;;;11.50;101271.00;;;;5045767;28;20056;-81
2021/09/22 07:23:18;;;;;;;33.47;4.45;;;;;11.40;101261.00;;;;5046364;28;20045;-77
2021/09/22 07:25:48;;;;;;;26.45;3.95;;;;;11.40;101248.00;;;;5046972;28;20373;-77
2021/09/22 07:28:17;;;;;;;24.83;3.72;;;;;11.50;101271.00;;;;5046283;28;20451;-80
2021/09/22 07:30:47;;;;;;;29.65;3.97;;;;;11.50;101272.00;;;;5045589;28;20055;-79
2021/09/22 07:33:16;;;;;;;34.20;5.60;;;;;11.50;101276.00;;;;5047446;28;20041;-78
2021/09/22 07:35:47;;;;;;;27.95;3.65;;;;;11.50;101255.00;;;;5046305;28;20051;-78
2021/09/22 07:38:17;;;;;;;29.48;5.43;;;;;11.50;101275.00;;;;5047175;28;20049;-82
2021/09/22 07:40:49;;;;;;;25.65;3.75;;;;;11.50;101253.00;;;;5045527;28;20535;-80
2021/09/22 07:43:19;;;;;;;31.95;5.90;;;;;11.40;101272.00;;;;5044394;28;20523;-79
2021/09/22 07:45:48;;;;;;;30.35;4.45;;;;;11.30;101266.00;;;;5044663;28;20504;-77
2021/09/22 07:48:21;;;;;;;27.65;4.40;;;;;11.20;101233.00;;;;5046030;28;20189;-81
2021/09/22 07:50:51;;;;;;;20.58;3.30;;;;;11.10;101242.00;;;;5046274;28;20049;-77
2021/09/22 07:53:21;;;;;;;28.77;3.95;;;;;11.00;101239.00;;;;5046179;28;20439;-78
2021/09/22 07:55:51;;;;;;;18.80;3.75;;;;;10.90;101258.00;;;;5045990;28;20041;-80
2021/09/22 07:58:21;;;;;;;34.45;4.47;;;;;10.80;101246.00;;;;5046406;28;20056;-76
2021/09/22 08:00:50;;;;;;;32.90;3.95;;;;;10.80;101267.00;;;;5045702;28;20466;-77
2021/09/22 08:03:20;;;;;;;35.03;4.22;;;;;10.80;101264.00;;;;5045506;28;20526;-79
2021/09/22 08:05:50;;;;;;;27.85;3.65;;;;;10.80;101261.00;;;;5046267;28;20124;-77
2021/09/22 08:08:19;;;;;;;37.50;3.75;;;;;10.80;101252.00;;;;5046341;28;20048;-77
2021/09/22 08:10:48;;;;;;;33.70;3.92;;;;;10.90;101264.00;;;;5045690;28;20043;-76
2021/09/22 08:13:18;;;;;;;28.75;4.28;;;;;11.00;101264.00;;;;5045723;28;20041;-76
2021/09/22 08:15:48;;;;;;;27.15;3.55;;;;;11.00;101245.00;;;;5046091;28;20055;-77
2021/09/22 08:18:18;;;;;;;26.95;4.30;;;;;11.10;101271.00;;;;5046395;28;20056;-78
2021/09/22 08:20:47;;;;;;;21.85;3.78;;;;;11.20;101285.00;;;;5045850;28;20867;-79
2021/09/22 08:23:17;;;;;;;29.75;4.20;;;;;11.30;101283.00;;;;5045924;28;20055;-81
2021/09/22 08:25:46;;;;;;;34.08;4.70;;;;;11.40;101263.00;;;;5046264;28;20440;-78
2021/09/22 08:28:16;;;;;;;26.48;4.60;;;;;11.40;101270.00;;;;5045737;28;20436;-76
2021/09/22 08:30:45;;;;;;;25.88;3.72;;;;;11.50;101260.00;;;;5046208;28;20041;-77
2021/09/22 08:33:15;;;;;;;25.88;4.18;;;;;11.60;101276.00;;;;5046162;28;20053;-78
2021/09/22 08:35:45;;;;;;;30.20;4.55;;;;;11.70;101285.00;;;;5045747;28;20057;-78
2021/09/22 08:38:14;;;;;;;22.95;4.53;;;;;11.70;101260.00;;;;5044485;28;20526;-77
2021/09/22 08:40:44;;;;;;;31.92;4.97;;;;;11.70;101269.00;;;;5045310;28;20048;-78
2021/09/22 08:43:13;;;;;;;24.17;4.85;;;;;11.70;101250.00;;;;5044695;28;20068;-79
2021/09/22 08:45:43;;;;;;;24.42;4.45;;;;;11.60;101256.00;;;;5046222;28;20053;-78
2021/09/22 08:48:12;;;;;;;24.25;4.20;;;;;11.60;101248.00;;;;5045654;28;20075;-79
2021/09/22 08:50:46;;;;;;;24.63;4.05;;;;;11.60;101245.00;;;;5044057;28;20053;-79
2021/09/22 08:53:15;;;;;;;28.93;4.60;;;;;11.60;101258.00;;;;5045753;28;20033;-79
2021/09/22 08:55:44;;;;;;;32.65;4.32;;;;;11.70;101282.00;;;;5046167;28;20048;-81
2021/09/22 08:58:14;;;;;;;32.92;4.45;;;;;11.70;101262.00;;;;5049215;28;20045;-76
2021/09/22 09:00:45;;;;;;;24.85;4.32;;;;;11.80;101286.00;;;;5049304;28;20037;-81
2021/09/22 09:03:40;;;;;;;26.27;4.40;;;;;11.80;101288.00;;;;5049204;28;20056;-79
2021/09/22 09:06:23;;;;;;;24.90;3.72;;;;;11.80;101285.00;;;;5048265;28;20579;-79
2021/09/22 09:08:57;;;;;;;26.88;4.68;;;;;11.80;101278.00;;;;5050103;28;20094;-78
2021/09/22 09:11:41;;;;;;;44.88;39.67;;;;;11.80;101278.00;;;;5049975;28;20073;-77
2021/09/22 09:14:16;;;;;;;31.65;5.22;;;;;11.90;101269.00;;;;5048080;28;20091;-81
2021/09/22 09:16:48;;;;;;;24.52;3.97;;;;;11.80;101305.00;;;;5048874;28;20057;-80
2021/09/22 09:19:21;;;;;;;238.05;27.08;;;;;11.90;101268.00;;;;5048967;28;20124;-78
2021/09/22 09:21:55;;;;;;;33.80;5.20;;;;;11.80;101297.00;;;;5048912;28;20062;-78
2021/09/22 09:24:44;;;;;;;29.15;4.63;;;;;11.70;101300.00;;;;5048677;28;20379;-78
2021/09/22 09:27:20;;;;;;;20.50;3.80;;;;;11.80;101300.00;;;;5048782;28;20182;-78
2021/09/22 09:29:57;;;;;;;22.98;4.38;;;;;11.80;101301.00;;;;5048799;28;20056;-78
2021/09/22 09:32:29;;;;;;;36.78;4.25;;;;;11.90;101270.00;;;;5048985;28;20041;-78
2021/09/22 09:35:06;;;;;;;18.85;3.42;;;;;11.90;101291.00;;;;5049223;28;20051;-80
2021/09/22 09:37:38;;;;;;;16.00;3.33;;;;;11.80;101290.00;;;;5048409;28;20053;-79
2021/09/22 09:40:36;;;;;;;22.95;4.22;;;;;11.80;101304.00;;;;5048573;28;20040;-81
2021/09/22 09:43:09;;;;;;;17.15;3.10;;;;;11.90;101297.00;;;;5047472;28;20063;-80
2021/09/22 09:45:44;;;;;;;19.17;5.80;;;;;12.10;101275.00;;;;5048558;28;20049;-79
2021/09/22 09:48:17;;;;;;;14.70;3.42;;;;;12.10;101294.00;;;;5048851;28;20111;-77
2021/09/22 09:50:52;;;;;;;21.27;3.50;;;;;12.20;101301.00;;;;5048265;28;20124;-79
2021/09/22 09:53:27;;;;;;;11.75;2.80;;;;;12.20;101310.00;;;;5047737;28;20447;-77
2021/09/22 09:56:04;;;;;;;15.45;3.05;;;;;12.30;101284.00;;;;5048754;28;20045;-79
2021/09/22 09:58:46;;;;;;;12.60;3.00;;;;;12.40;101280.00;;;;5048686;28;20047;-78
2021/09/22 10:01:17;;;;;;;11.02;2.80;;;;;12.50;101308.00;;;;5047930;28;20045;-79
2021/09/22 10:03:47;;;;;;;11.98;2.53;;;;;12.50;101266.00;;;;5047590;28;20045;-78
2021/09/22 10:06:18;;;;;;;14.90;2.75;;;;;12.40;101288.00;;;;5046473;28;20068;-80
2021/09/22 10:08:47;;;;;;;9.27;2.53;;;;;12.40;101285.00;;;;5048606;28;20102;-77
2021/09/22 10:11:16;;;;;;;11.85;2.70;;;;;12.40;101283.00;;;;5046418;28;20061;-76
2021/09/22 10:13:47;;;;;;;11.60;2.60;;;;;12.50;101287.00;;;;5045990;28;20053;-79
2021/09/22 10:16:18;;;;;;;14.57;3.20;;;;;12.60;101292.00;;;;5047686;28;20037;-76
2021/09/22 10:18:49;;;;;;;23.35;6.93;;;;;12.60;101284.00;;;;5048739;28;20051;-77
2021/09/22 10:21:20;;;;;;;12.23;3.20;;;;;12.50;101286.00;;;;5048052;28;20048;-76
2021/09/22 10:23:52;;;;;;;16.85;2.90;;;;;12.60;101291.00;;;;5047427;28;20045;-75
2021/09/22 10:26:23;;;;;;;21.77;3.67;;;;;12.60;101288.00;;;;5047749;28;20091;-78
2021/09/22 10:28:58;;;;;;;13.50;3.10;;;;;12.80;101281.00;;;;5045759;28;20061;-77
2021/09/22 10:31:31;;;;;;;17.08;3.30;;;;;12.80;101296.00;;;;5047565;28;20124;-76
2021/09/22 10:34:02;;;;;;;19.33;3.30;;;;;12.90;101283.00;;;;5047875;28;20065;-78
2021/09/22 10:36:43;;;;;;;11.98;2.83;;;;;13.00;101265.00;;;;5047400;28;20543;-75
2021/09/22 10:39:26;;;;;;;15.18;2.67;;;;;13.70;101225.00;;;;5046839;28;20076;-77
2021/09/22 10:41:55;;;;;;;13.65;2.80;;;;;14.60;101211.00;;;;5046625;28;20872;-80
2021/09/22 10:44:37;;;;;;;11.15;2.40;;;;;14.70;101207.00;;;;5047474;28;20500;-77
2021/09/22 10:47:27;;;;;;;9.23;2.17;;;;;14.90;101222.00;;;;5047105;28;20126;-79
2021/09/22 10:49:57;;;;;;;11.95;3.38;;;;;15.00;101192.00;;;;5047902;28;20315;-79
2021/09/22 10:52:31;;;;;;;9.68;2.45;;;;;15.20;101201.00;;;;5048326;28;20047;-80
2021/09/22 10:55:07;;;;;;;14.35;4.40;;;;;15.40;101246.00;;;;5047402;28;20045;-77
2021/09/22 10:57:37;;;;;;;8.75;2.28;;;;;14.70;101254.00;;;;5047341;28;20126;-80
2021/09/22 11:00:21;;;;;;;7.45;6.40;;;;;14.70;101273.00;;;;5046741;28;20064;-82
2021/09/22 11:02:54;;;;;;;7.80;3.05;;;;;14.70;101273.00;;;;5046956;28;20117;-75
2021/09/22 11:05:27;;;;;;;9.57;2.20;;;;;14.70;101278.00;;;;5046794;28;20480;-81
2021/09/22 11:07:59;;;;;;;5.97;2.58;;;;;14.70;101288.00;;;;5046861;28;20094;-83
2021/09/22 11:10:53;;;;;;;10.48;5.55;;;;;14.60;101296.00;;;;5045012;28;20140;-77
2021/09/22 11:13:23;;;;;;;22.90;5.85;;;;;14.70;101309.00;;;;5047073;28;20574;-80
2021/09/22 11:16:06;;;;;;;8.10;2.67;;;;;15.00;101279.00;;;;5046694;28;20067;-79
2021/09/22 11:18:40;;;;;;;5.97;5.47;;;;;16.30;101169.00;;;;5047035;28;20087;-80
2021/09/22 11:21:09;;;;;;;11.15;2.75;;;;;17.60;101235.00;;;;5046581;28;20063;-78
2021/09/22 11:23:42;;;;;;;8.05;1.75;;;;;16.60;101252.00;;;;5046341;28;20500;-81
2021/09/22 11:26:12;;;;;;;6.35;2.08;;;;;16.80;101243.00;;;;5046918;28;20049;-78
2021/09/22 11:28:51;;;;;;;4.47;1.70;;;;;16.80;101283.00;;;;5046261;28;20519;-75
2021/09/22 11:31:22;;;;;;;5.43;1.63;;;;;16.70;101178.00;;;;5046966;28;20098;-75
2021/09/22 11:33:57;;;;;;;9.07;5.20;;;;;17.60;101252.00;;;;5046680;28;20049;-81
2021/09/22 11:36:27;;;;;;;5.03;4.15;;;;;16.70;101281.00;;;;5046830;28;20091;-78
2021/09/22 11:38:58;;;;;;;4.80;4.40;;;;;16.40;101302.00;;;;5046799;28;20542;-76
2021/09/22 11:41:35;;;;;;;5.00;2.45;;;;;16.50;101267.00;;;;5046983;28;20551;-78
2021/09/22 11:44:07;;;;;;;12.57;3.95;;;;;16.70;101275.00;;;;5048650;28;20045;-76
2021/09/22 11:46:36;;;;;;;16.23;4.47;;;;;16.30;101284.00;;;;5048809;28;20064;-77
2021/09/22 11:49:06;;;;;;;11.13;6.22;;;;;15.90;101307.00;;;;5047480;28;20049;-77
2021/09/22 11:51:35;;;;;;;12.73;5.13;;;;;15.80;101302.00;;;;5046222;28;20041;-78
2021/09/22 11:54:20;;;;;;;7.88;1.75;;;;;15.90;101277.00;;;;5046310;28;20045;-79
2021/09/22 11:57:02;;;;;;;21.17;4.65;;;;;16.40;101278.00;;;;5047187;28;20535;-76
2021/09/22 11:59:33;;;;;;;15.52;3.80;;;;;17.30;101250.00;;;;5046619;28;20065;-78
2021/09/22 12:02:04;;;;;;;17.15;3.70;;;;;17.00;101262.00;;;;5046280;28;20048;-77
2021/09/22 12:04:39;;;;;;;11.82;2.92;;;;;17.10;101262.00;;;;5045657;28;20040;-78
2021/09/22 12:07:09;;;;;;;2.83;1.15;;;;;17.30;101264.00;;;;5046084;28;20041;-76
2021/09/22 12:09:47;;;;;;;9.35;3.47;;;;;17.20;101265.00;;;;5046006;28;20041;-79
2021/09/22 12:12:19;;;;;;;0.00;0.00;;;;;17.30;101266.00;;;;5045830;28;20045;-78
2021/09/22 12:14:53;;;;;;;19.83;6.97;;;;;17.60;101251.00;;;;5045851;28;20041;-77
2021/09/22 12:17:34;;;;;;;17.38;16.10;;;;;17.80;101272.00;;;;5044680;28;20487;-79
2021/09/22 12:20:08;;;;;;;37.75;3.83;;;;;17.90;101267.00;;;;5045310;28;20102;-74
2021/09/22 12:22:39;;;;;;;5.38;1.80;;;;;17.80;101264.00;;;;5046456;28;20053;-77
2021/09/22 12:25:10;;;;;;;2.83;1.10;;;;;17.60;101249.00;;;;5045895;28;20045;-75
2021/09/22 12:27:50;;;;;;;0.95;0.90;;;;;17.90;101242.00;;;;5045323;28;20053;-78
2021/09/22 12:30:30;;;;;;;0.63;0.40;;;;;18.50;101236.00;;;;5047611;28;20051;-79
2021/09/22 12:33:06;;;;;;;204.57;41.38;;;;;18.90;101236.00;;;;5050068;28;20041;-82
2021/09/22 12:35:43;;;;;;;14.95;3.33;;;;;18.90;101232.00;;;;5049754;28;20041;-80
2021/09/22 12:38:16;;;;;;;22.05;4.43;;;;;18.30;101238.00;;;;5049992;28;20216;-80